createdAt,value
2023-12-11T00:03:28.516Z,22.30
2023-12-11T00:08:32.403Z,22.30
2023-12-11T00:13:36.002Z,22.30
2023-12-11T00:18:41.024Z,22.20
2023-12-11T00:23:44.832Z,22.20
2023-12-11T00:28:48.658Z,22.20
2023-12-11T00:33:53.768Z,22.20
2023-12-11T00:38:57.366Z,22.20
2023-12-11T00:44:03.289Z,22.20
2023-12-11T00:49:08.210Z,22.10
2023-12-11T00:54:11.814Z,22.10
2023-12-11T00:59:15.420Z,22.10
2023-12-11T01:04:20.587Z,22.10
2023-12-11T01:09:24.134Z,22.10
2023-12-11T01:14:27.787Z,22.10
2023-12-11T01:19:32.824Z,22.00
2023-12-11T01:24:36.416Z,22.10
2023-12-11T01:29:39.930Z,22.10
2023-12-11T01:34:44.885Z,22.00
2023-12-11T01:39:48.478Z,22.00
2023-12-11T01:44:52.197Z,22.00
2023-12-11T01:49:57.265Z,22.00
2023-12-11T01:55:00.953Z,22.00
2023-12-11T02:00:06.823Z,22.00
2023-12-11T02:05:12.614Z,22.00
2023-12-11T02:10:17.016Z,22.00
2023-12-11T02:15:42.708Z,21.90
2023-12-11T02:20:48.045Z,21.90
2023-12-11T02:26:09.256Z,21.90
2023-12-11T02:31:13.649Z,21.90
2023-12-11T02:36:17.288Z,21.90
2023-12-11T02:41:22.204Z,21.90
2023-12-11T02:46:25.770Z,21.90
2023-12-11T02:51:29.317Z,21.90
2023-12-11T02:56:34.275Z,21.80
2023-12-11T03:01:40.855Z,21.90
2023-12-11T03:06:44.475Z,21.90
2023-12-11T03:11:49.383Z,21.80
2023-12-11T03:16:55.869Z,21.80
2023-12-11T03:21:59.376Z,21.80
2023-12-11T03:27:05.879Z,21.80
2023-12-11T03:32:09.655Z,21.80
2023-12-11T03:37:13.292Z,21.80
2023-12-11T03:42:18.193Z,21.80
2023-12-11T03:47:22.614Z,21.80
2023-12-11T03:52:26.162Z,21.80
2023-12-11T03:57:31.337Z,21.80
2023-12-11T04:02:35.167Z,21.80
2023-12-11T04:07:38.783Z,21.80
2023-12-11T04:12:45.072Z,21.80
2023-12-11T04:17:48.667Z,21.80
2023-12-11T04:22:52.225Z,21.80
2023-12-11T04:27:57.170Z,21.80
2023-12-11T04:33:00.799Z,21.80
2023-12-11T04:38:04.345Z,21.80
2023-12-11T04:43:09.383Z,21.80
2023-12-11T04:48:13.117Z,21.80
2023-12-11T04:53:16.767Z,21.70
2023-12-11T04:58:21.919Z,21.70
2023-12-11T05:03:25.426Z,21.70
2023-12-11T05:08:30.649Z,21.70
2023-12-11T05:13:35.729Z,21.60
2023-12-11T05:18:40.414Z,21.70
2023-12-11T05:23:44.132Z,21.70
2023-12-11T05:28:49.537Z,21.70
2023-12-11T05:33:53.242Z,21.70
2023-12-11T05:38:57.341Z,21.60
2023-12-11T05:44:02.323Z,21.60
2023-12-11T05:49:08.859Z,21.60
2023-12-11T05:54:12.424Z,21.60
2023-12-11T05:59:17.338Z,21.70
2023-12-11T06:04:20.929Z,21.60
2023-12-11T06:09:24.506Z,21.60
2023-12-11T06:14:29.376Z,21.60
2023-12-11T06:19:32.904Z,21.60
2023-12-11T06:24:38.601Z,21.60
2023-12-11T06:29:43.617Z,21.60
2023-12-11T06:34:47.263Z,21.60
2023-12-11T06:39:50.891Z,21.60
2023-12-11T06:44:55.819Z,21.60
2023-12-11T06:49:59.548Z,21.60
2023-12-11T06:55:03.822Z,21.60
2023-12-11T07:00:11.916Z,21.60
2023-12-11T07:05:15.663Z,21.50
2023-12-11T07:10:19.382Z,21.50
2023-12-11T07:15:24.269Z,21.50
2023-12-11T07:20:28.518Z,21.50
2023-12-11T07:25:33.017Z,21.50
2023-12-11T07:37:02.500Z,21.50
2023-12-11T07:42:07.834Z,21.50
2023-12-11T07:47:12.759Z,21.50
2023-12-11T07:52:16.526Z,21.50
2023-12-11T07:57:20.191Z,21.60
2023-12-11T08:02:25.252Z,21.60
2023-12-11T08:07:29.109Z,21.60
2023-12-11T08:12:33.092Z,21.60
2023-12-11T08:17:38.091Z,21.60
2023-12-11T08:22:41.733Z,21.60
2023-12-11T08:27:45.360Z,21.70
2023-12-11T08:32:50.338Z,21.70
2023-12-11T08:37:53.913Z,21.70
2023-12-11T08:42:57.497Z,21.60
2023-12-11T08:48:02.627Z,21.60
2023-12-11T08:53:06.707Z,21.60
2023-12-11T08:58:10.332Z,21.60
2023-12-11T09:03:15.271Z,21.60
2023-12-11T09:08:18.780Z,21.60
2023-12-11T09:13:22.969Z,21.60
2023-12-11T09:18:28.612Z,21.60
2023-12-11T09:23:32.234Z,21.60
2023-12-11T09:28:41.873Z,21.50
2023-12-11T09:33:53.459Z,21.50
2023-12-11T09:38:59.574Z,21.50
2023-12-11T09:44:03.475Z,21.40
2023-12-11T09:49:09.649Z,21.20
2023-12-11T09:54:14.352Z,21.10
2023-12-11T10:00:17.476Z,21.00
2023-12-11T10:05:28.268Z,21.00
2023-12-11T10:10:35.249Z,21.10
2023-12-11T10:15:39.453Z,21.10
2023-12-11T10:20:46.433Z,21.10
2023-12-11T10:25:53.023Z,21.10
2023-12-11T10:31:00.482Z,21.10
2023-12-11T10:36:17.106Z,21.10
2023-12-11T10:41:27.961Z,21.10
2023-12-11T10:46:32.391Z,21.10
2023-12-11T10:51:38.427Z,21.10
2023-12-11T10:56:45.630Z,21.00
2023-12-11T11:01:51.545Z,21.00
2023-12-11T11:07:02.677Z,21.00
2023-12-11T11:12:15.037Z,21.10
2023-12-11T11:17:18.768Z,21.10
2023-12-11T11:22:31.588Z,21.20
2023-12-11T11:27:43.787Z,21.20
2023-12-11T11:32:57.191Z,21.20
2023-12-11T11:38:02.008Z,21.20
2023-12-11T11:43:06.295Z,21.20
2023-12-11T11:48:09.792Z,21.30
2023-12-11T11:53:16.314Z,21.30
2023-12-11T11:58:19.859Z,21.30
2023-12-11T12:03:23.312Z,21.30
2023-12-11T12:08:28.372Z,21.30
2023-12-11T12:13:35.762Z,21.30
2023-12-11T12:18:51.202Z,21.30
2023-12-11T12:24:04.828Z,21.30
2023-12-11T12:29:10.996Z,21.20
2023-12-11T12:34:15.586Z,21.10
2023-12-11T12:39:22.256Z,21.00
2023-12-11T12:44:25.811Z,20.90
2023-12-11T12:49:29.260Z,20.80
2023-12-11T12:54:52.885Z,20.80
2023-12-11T12:59:56.347Z,20.70
2023-12-11T13:04:59.843Z,20.70
2023-12-11T13:10:12.007Z,20.60
2023-12-11T13:15:15.898Z,20.60
2023-12-11T13:20:21.380Z,20.60
2023-12-11T13:25:26.385Z,20.60
2023-12-11T13:30:29.867Z,20.70
2023-12-11T13:35:37.893Z,20.70
2023-12-11T13:40:42.956Z,20.70
2023-12-11T13:45:46.813Z,20.70
2023-12-11T13:50:50.325Z,20.70
2023-12-11T13:55:55.178Z,20.70
2023-12-11T14:00:58.701Z,20.70
2023-12-11T14:06:03.404Z,20.70
2023-12-11T14:11:09.618Z,20.70
2023-12-11T14:16:13.059Z,20.70
2023-12-11T14:21:18.522Z,20.70
2023-12-11T14:26:23.413Z,20.70
2023-12-11T14:31:26.851Z,20.70
2023-12-11T14:36:30.321Z,20.70
2023-12-11T14:41:35.094Z,20.70
2023-12-11T14:46:39.689Z,20.70
2023-12-11T14:51:43.200Z,20.70
2023-12-11T14:56:48.278Z,20.70
2023-12-11T15:01:51.986Z,20.70
2023-12-11T15:06:55.654Z,20.70
2023-12-11T15:12:00.538Z,20.60
2023-12-11T15:17:04.613Z,20.60
2023-12-11T15:22:08.022Z,20.60
2023-12-11T15:27:12.970Z,20.60
2023-12-11T15:32:17.120Z,20.60
2023-12-11T15:37:20.673Z,20.60
2023-12-11T15:42:25.481Z,20.60
2023-12-11T15:47:29.922Z,20.60
2023-12-11T15:52:52.283Z,20.60
2023-12-11T15:57:57.205Z,20.60
2023-12-11T16:03:00.728Z,20.60
2023-12-11T16:08:04.462Z,20.60
2023-12-11T16:13:09.355Z,20.60
2023-12-11T16:18:13.175Z,20.60
2023-12-11T16:23:16.850Z,20.50
2023-12-11T16:28:21.713Z,20.60
2023-12-11T16:33:25.498Z,20.50
2023-12-11T16:38:29.082Z,20.50
2023-12-11T16:43:33.918Z,20.50
2023-12-11T16:48:38.558Z,20.50
2023-12-11T16:53:43.097Z,20.50
2023-12-11T16:58:47.927Z,20.50
2023-12-11T17:03:51.817Z,20.50
2023-12-11T17:08:55.497Z,20.50
2023-12-11T17:14:00.271Z,20.50
2023-12-11T17:19:05.031Z,20.50
2023-12-11T17:24:11.634Z,20.50
2023-12-11T17:29:16.418Z,20.60
2023-12-11T17:34:19.937Z,20.60
2023-12-11T17:39:23.407Z,20.60
2023-12-11T17:44:28.206Z,20.60
2023-12-11T17:49:31.769Z,20.60
2023-12-11T17:54:35.255Z,20.70
2023-12-11T17:59:42.140Z,20.70
2023-12-11T18:04:45.840Z,20.70
2023-12-11T18:09:50.082Z,20.70
2023-12-11T18:14:55.046Z,20.90
2023-12-11T18:19:58.683Z,21.10
2023-12-11T18:25:02.547Z,21.20
2023-12-11T18:30:09.637Z,21.30
2023-12-11T18:35:13.451Z,21.40
2023-12-11T18:40:17.220Z,21.50
2023-12-11T18:45:23.641Z,21.50
2023-12-11T18:50:27.109Z,21.60
2023-12-11T18:55:32.659Z,21.70
2023-12-11T19:00:37.671Z,21.80
2023-12-11T19:05:41.924Z,21.80
2023-12-11T19:10:45.400Z,21.80
2023-12-11T19:15:50.216Z,21.80
2023-12-11T19:20:53.694Z,21.90
2023-12-11T19:25:57.493Z,21.90
2023-12-11T19:31:02.361Z,21.90
2023-12-11T19:36:06.915Z,21.90
2023-12-11T19:41:10.669Z,21.90
2023-12-11T19:46:15.509Z,21.90
2023-12-11T19:51:19.029Z,21.90
2023-12-11T19:56:23.002Z,21.90
2023-12-11T20:01:31.805Z,21.90
2023-12-11T20:06:35.334Z,21.90
2023-12-11T20:11:38.736Z,21.90
2023-12-11T20:16:44.297Z,21.90
2023-12-11T20:21:50.208Z,21.80
2023-12-11T20:26:54.566Z,21.80
2023-12-11T20:31:59.341Z,21.90
2023-12-11T20:37:02.819Z,21.90
2023-12-11T20:42:06.936Z,21.90
2023-12-11T20:47:11.716Z,21.80
2023-12-11T20:52:15.169Z,21.80
2023-12-11T20:57:18.576Z,21.80
2023-12-11T21:02:23.418Z,21.70
2023-12-11T21:07:26.882Z,21.70
2023-12-11T21:12:30.324Z,21.70
2023-12-11T21:17:35.414Z,21.60
2023-12-11T21:22:39.096Z,21.60
2023-12-11T21:27:42.482Z,21.60
2023-12-11T21:32:47.408Z,21.50
2023-12-11T21:37:50.871Z,21.50
2023-12-11T21:42:54.415Z,21.50
2023-12-11T21:47:59.685Z,21.40
2023-12-11T21:53:05.824Z,21.40
2023-12-11T21:58:09.290Z,21.40
2023-12-11T22:03:14.724Z,21.40
2023-12-11T22:08:18.293Z,21.40
2023-12-11T22:13:22.016Z,21.40
2023-12-11T22:18:27.112Z,21.50
2023-12-11T22:23:30.587Z,21.50
2023-12-11T22:28:34.156Z,21.60
2023-12-11T22:33:39.078Z,21.60
2023-12-11T22:38:42.489Z,21.70
2023-12-11T22:43:45.898Z,21.70
2023-12-11T22:48:50.776Z,21.70
2023-12-11T22:53:54.258Z,21.70
2023-12-11T22:58:57.667Z,21.80
2023-12-11T23:04:02.848Z,21.90
2023-12-11T23:09:06.616Z,21.90
2023-12-11T23:14:11.043Z,21.90
2023-12-11T23:19:15.956Z,21.90
2023-12-11T23:24:20.007Z,21.90
2023-12-11T23:29:23.480Z,21.90
2023-12-11T23:34:28.441Z,21.90
2023-12-11T23:39:32.911Z,21.90
2023-12-11T23:44:36.443Z,21.90
2023-12-11T23:49:41.423Z,21.90
2023-12-11T23:54:44.920Z,21.90
2023-12-11T23:59:48.295Z,21.90
